sensor_id;sensor_type;location;lat;lon;timestamp;pressure;altitude;pressure_sealevel;temperature;humidity
78890;BME280;68279;48.964;14.502;2023-10-19T00:00:40;95881.38;;;4.40;100.00
78890;BME280;68279;48.964;14.502;2023-10-19T00:03:10;95878.13;;;4.64;100.00
78890;BME280;68279;48.964;14.502;2023-10-19T00:05:36;95890.03;;;4.71;100.00
78890;BME280;68279;48.964;14.502;2023-10-19T00:08:04;95888.63;;;4.84;100.00
78890;BME280;68279;48.964;14.502;2023-10-19T00:10:46;95903.97;;;4.92;99.57
78890;BME280;68279;48.964;14.502;2023-10-19T00:13:36;95885.44;;;4.92;100.00
78890;BME280;68279;48.964;14.502;2023-10-19T00:16:03;95873.53;;;4.90;100.00
78890;BME280;68279;48.964;14.502;2023-10-19T00:18:50;95880.91;;;4.93;99.92
78890;BME280;68279;48.964;14.502;2023-10-19T00:21:17;95908.19;;;4.98;99.08
78890;BME280;68279;48.964;14.502;2023-10-19T00:23:51;95892.53;;;5.07;97.97
78890;BME280;68279;48.964;14.502;2023-10-19T00:26:20;95884.31;;;5.03;98.82
78890;BME280;68279;48.964;14.502;2023-10-19T00:28:46;95866.59;;;4.99;100.00
78890;BME280;68279;48.964;14.502;2023-10-19T00:31:15;95872.19;;;4.92;100.00
78890;BME280;68279;48.964;14.502;2023-10-19T00:33:40;95861.13;;;4.80;100.00
78890;BME280;68279;48.964;14.502;2023-10-19T00:36:10;95839.41;;;4.78;100.00
78890;BME280;68279;48.964;14.502;2023-10-19T00:38:39;95816.59;;;4.87;100.00
78890;BME280;68279;48.964;14.502;2023-10-19T00:41:09;95813.47;;;4.75;100.00
78890;BME280;68279;48.964;14.502;2023-10-19T00:43:36;95818.25;;;4.73;100.00
78890;BME280;68279;48.964;14.502;2023-10-19T00:46:13;95837.28;;;4.75;100.00
78890;BME280;68279;48.964;14.502;2023-10-19T00:51:13;95833.72;;;5.05;98.66
78890;BME280;68279;48.964;14.502;2023-10-19T00:53:55;95835.03;;;5.02;98.31
78890;BME280;68279;48.964;14.502;2023-10-19T00:56:23;95828.16;;;5.01;97.99
78890;BME280;68279;48.964;14.502;2023-10-19T00:58:52;95816.75;;;5.01;97.48
78890;BME280;68279;48.964;14.502;2023-10-19T01:01:30;95808.09;;;4.90;98.47
78890;BME280;68279;48.964;14.502;2023-10-19T01:03:56;95811.88;;;4.79;98.83
78890;BME280;68279;48.964;14.502;2023-10-19T01:06:23;95807.88;;;4.81;98.83
78890;BME280;68279;48.964;14.502;2023-10-19T01:08:49;95805.50;;;4.80;99.01
78890;BME280;68279;48.964;14.502;2023-10-19T01:11:16;95808.72;;;4.72;99.72
78890;BME280;68279;48.964;14.502;2023-10-19T01:13:47;95820.09;;;4.67;98.96
78890;BME280;68279;48.964;14.502;2023-10-19T01:16:17;95824.38;;;4.68;98.70
78890;BME280;68279;48.964;14.502;2023-10-19T01:18:50;95813.56;;;4.49;99.50
78890;BME280;68279;48.964;14.502;2023-10-19T01:21:22;95805.16;;;4.42;99.82
78890;BME280;68279;48.964;14.502;2023-10-19T01:23:52;95795.13;;;4.29;100.00
78890;BME280;68279;48.964;14.502;2023-10-19T01:26:18;95793.06;;;4.11;100.00
78890;BME280;68279;48.964;14.502;2023-10-19T01:28:47;95795.75;;;3.90;100.00
78890;BME280;68279;48.964;14.502;2023-10-19T01:31:18;95790.19;;;3.97;100.00
78890;BME280;68279;48.964;14.502;2023-10-19T01:33:54;95782.00;;;3.93;100.00
78890;BME280;68279;48.964;14.502;2023-10-19T01:36:32;95783.56;;;4.00;100.00
78890;BME280;68279;48.964;14.502;2023-10-19T01:39:11;95777.22;;;4.01;100.00
78890;BME280;68279;48.964;14.502;2023-10-19T01:41:37;95767.97;;;3.98;100.00
78890;BME280;68279;48.964;14.502;2023-10-19T01:44:05;95762.94;;;4.07;100.00
78890;BME280;68279;48.964;14.502;2023-10-19T01:46:33;95752.06;;;4.08;100.00
78890;BME280;68279;48.964;14.502;2023-10-19T01:49:00;95752.34;;;3.96;100.00
78890;BME280;68279;48.964;14.502;2023-10-19T01:51:29;95752.59;;;4.10;100.00
78890;BME280;68279;48.964;14.502;2023-10-19T01:53:56;95747.06;;;3.96;100.00
78890;BME280;68279;48.964;14.502;2023-10-19T01:56:22;95740.69;;;4.03;100.00
78890;BME280;68279;48.964;14.502;2023-10-19T01:58:49;95736.47;;;4.02;100.00
78890;BME280;68279;48.964;14.502;2023-10-19T02:01:17;95736.25;;;3.93;100.00
78890;BME280;68279;48.964;14.502;2023-10-19T02:03:58;95739.63;;;4.04;100.00
78890;BME280;68279;48.964;14.502;2023-10-19T02:06:26;95740.97;;;4.01;100.00
78890;BME280;68279;48.964;14.502;2023-10-19T02:08:59;95746.00;;;4.03;100.00
78890;BME280;68279;48.964;14.502;2023-10-19T02:11:51;95731.47;;;3.95;100.00
78890;BME280;68279;48.964;14.502;2023-10-19T02:14:26;95739.44;;;3.85;100.00
78890;BME280;68279;48.964;14.502;2023-10-19T02:16:54;95734.41;;;3.83;100.00
78890;BME280;68279;48.964;14.502;2023-10-19T02:19:23;95732.84;;;3.82;100.00
78890;BME280;68279;48.964;14.502;2023-10-19T02:21:54;95748.94;;;3.91;100.00
78890;BME280;68279;48.964;14.502;2023-10-19T02:24:21;95732.25;;;3.95;100.00
78890;BME280;68279;48.964;14.502;2023-10-19T02:26:50;95718.78;;;3.87;100.00
78890;BME280;68279;48.964;14.502;2023-10-19T02:29:18;95724.84;;;4.03;100.00
78890;BME280;68279;48.964;14.502;2023-10-19T02:31:44;95717.41;;;4.10;100.00
78890;BME280;68279;48.964;14.502;2023-10-19T02:34:12;95717.06;;;4.21;100.00
78890;BME280;68279;48.964;14.502;2023-10-19T02:36:41;95720.25;;;4.23;100.00
78890;BME280;68279;48.964;14.502;2023-10-19T02:39:12;95700.94;;;4.23;100.00
78890;BME280;68279;48.964;14.502;2023-10-19T02:41:47;95699.34;;;4.27;100.00
78890;BME280;68279;48.964;14.502;2023-10-19T02:44:20;95697.19;;;4.29;100.00
78890;BME280;68279;48.964;14.502;2023-10-19T02:46:55;95695.34;;;4.30;100.00
78890;BME280;68279;48.964;14.502;2023-10-19T02:49:34;95696.13;;;4.35;100.00
78890;BME280;68279;48.964;14.502;2023-10-19T02:52:05;95703.28;;;4.35;100.00
78890;BME280;68279;48.964;14.502;2023-10-19T02:54:31;95713.06;;;4.34;100.00
78890;BME280;68279;48.964;14.502;2023-10-19T02:57:00;95716.41;;;4.50;100.00
78890;BME280;68279;48.964;14.502;2023-10-19T02:59:26;95711.88;;;4.55;100.00
78890;BME280;68279;48.964;14.502;2023-10-19T03:01:56;95716.19;;;4.41;100.00
78890;BME280;68279;48.964;14.502;2023-10-19T03:04:42;95722.88;;;4.34;100.00
78890;BME280;68279;48.964;14.502;2023-10-19T03:07:09;95710.44;;;4.29;100.00
78890;BME280;68279;48.964;14.502;2023-10-19T03:09:38;95714.16;;;4.23;100.00
78890;BME280;68279;48.964;14.502;2023-10-19T03:12:20;95694.91;;;4.12;100.00
78890;BME280;68279;48.964;14.502;2023-10-19T03:14:46;95691.97;;;4.14;100.00
78890;BME280;68279;48.964;14.502;2023-10-19T03:17:13;95696.19;;;4.25;100.00
78890;BME280;68279;48.964;14.502;2023-10-19T03:19:39;95700.63;;;4.35;100.00
78890;BME280;68279;48.964;14.502;2023-10-19T03:22:05;95678.38;;;4.36;100.00
78890;BME280;68279;48.964;14.502;2023-10-19T03:24:34;95662.00;;;4.34;100.00
78890;BME280;68279;48.964;14.502;2023-10-19T03:27:07;95652.72;;;4.31;100.00
78890;BME280;68279;48.964;14.502;2023-10-19T03:29:46;95659.06;;;4.35;100.00
78890;BME280;68279;48.964;14.502;2023-10-19T03:32:13;95670.94;;;4.38;100.00
78890;BME280;68279;48.964;14.502;2023-10-19T03:34:39;95662.22;;;4.37;100.00
78890;BME280;68279;48.964;14.502;2023-10-19T03:37:08;95656.19;;;4.26;100.00
78890;BME280;68279;48.964;14.502;2023-10-19T03:39:37;95651.75;;;4.17;100.00
78890;BME280;68279;48.964;14.502;2023-10-19T03:42:05;95651.22;;;4.20;100.00
78890;BME280;68279;48.964;14.502;2023-10-19T03:44:34;95654.88;;;4.24;100.00
78890;BME280;68279;48.964;14.502;2023-10-19T03:47:12;95652.78;;;4.21;100.00
78890;BME280;68279;48.964;14.502;2023-10-19T03:49:46;95661.22;;;4.23;100.00
78890;BME280;68279;48.964;14.502;2023-10-19T03:52:12;95658.06;;;4.21;100.00
78890;BME280;68279;48.964;14.502;2023-10-19T03:54:40;95648.56;;;4.20;100.00
78890;BME280;68279;48.964;14.502;2023-10-19T03:57:07;95654.69;;;4.15;100.00
78890;BME280;68279;48.964;14.502;2023-10-19T03:59:46;95651.22;;;4.15;100.00
78890;BME280;68279;48.964;14.502;2023-10-19T04:02:15;95634.91;;;4.03;100.00
78890;BME280;68279;48.964;14.502;2023-10-19T04:04:47;95642.59;;;3.94;100.00
78890;BME280;68279;48.964;14.502;2023-10-19T04:07:21;95642.88;;;3.87;100.00
78890;BME280;68279;48.964;14.502;2023-10-19T04:09:52;95643.44;;;3.89;100.00
78890;BME280;68279;48.964;14.502;2023-10-19T04:12:39;95630.97;;;3.95;100.00
78890;BME280;68279;48.964;14.502;2023-10-19T04:15:08;95629.97;;;3.81;100.00
78890;BME280;68279;48.964;14.502;2023-10-19T04:17:45;95622.91;;;3.66;100.00
78890;BME280;68279;48.964;14.502;2023-10-19T04:20:12;95630.59;;;3.62;100.00
78890;BME280;68279;48.964;14.502;2023-10-19T04:22:49;95626.34;;;3.61;100.00
78890;BME280;68279;48.964;14.502;2023-10-19T04:25:16;95625.31;;;3.57;100.00
78890;BME280;68279;48.964;14.502;2023-10-19T04:27:43;95617.94;;;3.49;100.00
78890;BME280;68279;48.964;14.502;2023-10-19T04:30:13;95619.78;;;3.49;100.00
78890;BME280;68279;48.964;14.502;2023-10-19T04:32:42;95607.53;;;3.73;100.00
78890;BME280;68279;48.964;14.502;2023-10-19T04:35:08;95606.72;;;3.78;100.00
78890;BME280;68279;48.964;14.502;2023-10-19T04:37:35;95602.75;;;3.75;100.00
78890;BME280;68279;48.964;14.502;2023-10-19T04:40:01;95608.50;;;3.92;100.00
78890;BME280;68279;48.964;14.502;2023-10-19T04:42:27;95607.44;;;3.88;100.00
78890;BME280;68279;48.964;14.502;2023-10-19T04:44:56;95600.06;;;3.85;100.00
78890;BME280;68279;48.964;14.502;2023-10-19T04:47:21;95603.00;;;3.79;100.00
78890;BME280;68279;48.964;14.502;2023-10-19T04:49:47;95599.28;;;3.80;100.00
78890;BME280;68279;48.964;14.502;2023-10-19T04:52:13;95595.31;;;3.82;100.00
78890;BME280;68279;48.964;14.502;2023-10-19T04:54:38;95588.75;;;3.75;100.00
78890;BME280;68279;48.964;14.502;2023-10-19T04:57:04;95575.50;;;3.80;100.00
78890;BME280;68279;48.964;14.502;2023-10-19T04:59:30;95588.19;;;3.78;100.00
78890;BME280;68279;48.964;14.502;2023-10-19T05:01:59;95595.56;;;3.86;100.00
78890;BME280;68279;48.964;14.502;2023-10-19T05:04:27;95597.41;;;3.85;100.00
78890;BME280;68279;48.964;14.502;2023-10-19T05:06:53;95604.00;;;3.93;100.00
78890;BME280;68279;48.964;14.502;2023-10-19T05:09:19;95599.28;;;3.85;100.00
78890;BME280;68279;48.964;14.502;2023-10-19T05:11:44;95592.16;;;3.80;100.00
78890;BME280;68279;48.964;14.502;2023-10-19T05:14:13;95581.09;;;3.73;100.00
78890;BME280;68279;48.964;14.502;2023-10-19T05:16:41;95585.34;;;3.69;100.00
78890;BME280;68279;48.964;14.502;2023-10-19T05:19:07;95583.22;;;3.71;100.00
78890;BME280;68279;48.964;14.502;2023-10-19T05:21:33;95593.75;;;3.76;100.00
78890;BME280;68279;48.964;14.502;2023-10-19T05:23:59;95590.28;;;3.86;100.00
78890;BME280;68279;48.964;14.502;2023-10-19T05:26:27;95583.63;;;3.93;100.00
78890;BME280;68279;48.964;14.502;2023-10-19T05:28:53;95594.97;;;3.99;100.00
78890;BME280;68279;48.964;14.502;2023-10-19T05:31:20;95598.88;;;4.12;100.00
78890;BME280;68279;48.964;14.502;2023-10-19T05:33:45;95593.00;;;4.15;100.00
78890;BME280;68279;48.964;14.502;2023-10-19T05:36:14;95581.34;;;4.21;100.00
78890;BME280;68279;48.964;14.502;2023-10-19T05:38:40;95579.19;;;4.23;100.00
78890;BME280;68279;48.964;14.502;2023-10-19T05:41:06;95579.66;;;4.35;100.00
78890;BME280;68279;48.964;14.502;2023-10-19T05:43:33;95580.16;;;4.42;100.00
78890;BME280;68279;48.964;14.502;2023-10-19T05:46:00;95576.84;;;4.55;100.00
78890;BME280;68279;48.964;14.502;2023-10-19T05:48:26;95580.75;;;4.68;100.00
78890;BME280;68279;48.964;14.502;2023-10-19T05:50:52;95583.84;;;4.75;100.00
78890;BME280;68279;48.964;14.502;2023-10-19T05:53:17;95585.34;;;4.87;100.00
78890;BME280;68279;48.964;14.502;2023-10-19T05:55:50;95583.59;;;5.01;100.00
78890;BME280;68279;48.964;14.502;2023-10-19T05:58:15;95577.97;;;5.07;100.00
78890;BME280;68279;48.964;14.502;2023-10-19T06:00:41;95573.69;;;5.11;100.00
78890;BME280;68279;48.964;14.502;2023-10-19T06:03:07;95579.78;;;5.12;100.00
78890;BME280;68279;48.964;14.502;2023-10-19T06:05:33;95586.06;;;5.21;100.00
78890;BME280;68279;48.964;14.502;2023-10-19T06:07:59;95583.41;;;5.21;100.00
78890;BME280;68279;48.964;14.502;2023-10-19T06:10:28;95584.25;;;5.17;100.00
78890;BME280;68279;48.964;14.502;2023-10-19T06:12:54;95582.59;;;5.21;100.00
78890;BME280;68279;48.964;14.502;2023-10-19T06:15:21;95576.19;;;5.27;100.00
78890;BME280;68279;48.964;14.502;2023-10-19T06:17:49;95570.31;;;5.30;100.00
78890;BME280;68279;48.964;14.502;2023-10-19T06:20:15;95559.94;;;5.33;100.00
78890;BME280;68279;48.964;14.502;2023-10-19T06:22:55;95557.00;;;5.35;100.00
78890;BME280;68279;48.964;14.502;2023-10-19T06:25:22;95551.59;;;5.45;100.00
78890;BME280;68279;48.964;14.502;2023-10-19T06:27:48;95557.69;;;5.46;100.00
78890;BME280;68279;48.964;14.502;2023-10-19T06:30:16;95558.41;;;5.51;100.00
78890;BME280;68279;48.964;14.502;2023-10-19T06:32:51;95553.63;;;5.53;100.00
78890;BME280;68279;48.964;14.502;2023-10-19T06:35:18;95560.00;;;5.52;100.00
78890;BME280;68279;48.964;14.502;2023-10-19T06:37:44;95547.22;;;5.54;100.00
78890;BME280;68279;48.964;14.502;2023-10-19T06:40:11;95545.81;;;5.62;100.00
78890;BME280;68279;48.964;14.502;2023-10-19T06:42:38;95549.75;;;5.64;100.00
78890;BME280;68279;48.964;14.502;2023-10-19T06:45:04;95539.66;;;5.66;100.00
78890;BME280;68279;48.964;14.502;2023-10-19T06:47:30;95539.59;;;5.72;100.00
78890;BME280;68279;48.964;14.502;2023-10-19T06:49:55;95543.25;;;5.76;100.00
78890;BME280;68279;48.964;14.502;2023-10-19T06:52:22;95543.84;;;5.91;100.00
78890;BME280;68279;48.964;14.502;2023-10-19T06:54:47;95542.72;;;5.97;100.00
78890;BME280;68279;48.964;14.502;2023-10-19T06:57:13;95539.91;;;6.08;100.00
78890;BME280;68279;48.964;14.502;2023-10-19T06:59:39;95542.81;;;6.11;100.00
78890;BME280;68279;48.964;14.502;2023-10-19T07:02:05;95543.88;;;6.10;100.00
78890;BME280;68279;48.964;14.502;2023-10-19T07:04:33;95548.16;;;6.25;100.00
78890;BME280;68279;48.964;14.502;2023-10-19T07:06:58;95542.28;;;6.28;100.00
78890;BME280;68279;48.964;14.502;2023-10-19T07:09:26;95542.03;;;6.43;100.00
78890;BME280;68279;48.964;14.502;2023-10-19T07:11:51;95544.63;;;6.48;99.48
78890;BME280;68279;48.964;14.502;2023-10-19T07:14:20;95545.22;;;6.45;99.32
78890;BME280;68279;48.964;14.502;2023-10-19T07:16:48;95541.31;;;6.57;98.31
78890;BME280;68279;48.964;14.502;2023-10-19T07:19:15;95537.72;;;6.47;99.30
78890;BME280;68279;48.964;14.502;2023-10-19T07:21:40;95541.53;;;6.41;99.51
78890;BME280;68279;48.964;14.502;2023-10-19T07:24:08;95533.88;;;6.40;100.00
78890;BME280;68279;48.964;14.502;2023-10-19T07:26:36;95534.84;;;6.44;99.70
78890;BME280;68279;48.964;14.502;2023-10-19T07:29:16;95538.88;;;6.41;99.44
78890;BME280;68279;48.964;14.502;2023-10-19T07:31:42;95538.28;;;6.44;99.13
78890;BME280;68279;48.964;14.502;2023-10-19T07:34:07;95533.22;;;6.48;99.70
78890;BME280;68279;48.964;14.502;2023-10-19T07:36:38;95522.41;;;6.58;100.00
78890;BME280;68279;48.964;14.502;2023-10-19T07:39:04;95524.41;;;6.66;99.61
78890;BME280;68279;48.964;14.502;2023-10-19T07:41:29;95512.88;;;6.71;100.00
78890;BME280;68279;48.964;14.502;2023-10-19T07:44:01;95498.25;;;6.73;99.30
78890;BME280;68279;48.964;14.502;2023-10-19T07:46:27;95494.63;;;6.83;99.34
78890;BME280;68279;48.964;14.502;2023-10-19T07:48:54;95496.13;;;6.89;98.55
78890;BME280;68279;48.964;14.502;2023-10-19T07:51:20;95498.88;;;7.12;99.66
78890;BME280;68279;48.964;14.502;2023-10-19T07:53:45;95494.53;;;7.29;98.73
78890;BME280;68279;48.964;14.502;2023-10-19T07:56:11;95503.28;;;7.30;97.40
78890;BME280;68279;48.964;14.502;2023-10-19T07:58:37;95514.03;;;7.38;97.46
78890;BME280;68279;48.964;14.502;2023-10-19T08:01:02;95516.56;;;7.57;97.16
78890;BME280;68279;48.964;14.502;2023-10-19T08:03:28;95501.41;;;7.94;96.59
78890;BME280;68279;48.964;14.502;2023-10-19T08:05:54;95493.56;;;7.89;95.92
78890;BME280;68279;48.964;14.502;2023-10-19T08:08:19;95494.94;;;7.86;94.51
78890;BME280;68279;48.964;14.502;2023-10-19T08:10:45;95495.69;;;8.01;95.03
78890;BME280;68279;48.964;14.502;2023-10-19T08:13:11;95489.41;;;8.19;94.79
78890;BME280;68279;48.964;14.502;2023-10-19T08:15:38;95503.88;;;8.04;93.98
78890;BME280;68279;48.964;14.502;2023-10-19T08:18:03;95508.97;;;8.14;93.09
78890;BME280;68279;48.964;14.502;2023-10-19T08:20:31;95515.41;;;8.36;92.43
78890;BME280;68279;48.964;14.502;2023-10-19T08:22:58;95504.34;;;8.29;90.55
78890;BME280;68279;48.964;14.502;2023-10-19T08:25:24;95497.09;;;8.65;90.89
78890;BME280;68279;48.964;14.502;2023-10-19T08:27:52;95492.34;;;8.85;92.03
78890;BME280;68279;48.964;14.502;2023-10-19T08:30:23;95487.03;;;8.85;90.96
78890;BME280;68279;48.964;14.502;2023-10-19T08:32:49;95480.44;;;8.91;90.64
78890;BME280;68279;48.964;14.502;2023-10-19T08:35:16;95461.50;;;8.92;91.06
78890;BME280;68279;48.964;14.502;2023-10-19T08:37:55;95458.56;;;9.02;90.55
78890;BME280;68279;48.964;14.502;2023-10-19T08:40:24;95467.09;;;8.82;90.81
78890;BME280;68279;48.964;14.502;2023-10-19T08:42:52;95485.34;;;8.97;89.86
78890;BME280;68279;48.964;14.502;2023-10-19T08:45:19;95482.91;;;9.18;89.89
78890;BME280;68279;48.964;14.502;2023-10-19T08:47:58;95484.78;;;9.18;90.91
78890;BME280;68279;48.964;14.502;2023-10-19T08:50:29;95487.63;;;9.13;92.81
78890;BME280;68279;48.964;14.502;2023-10-19T08:52:59;95478.22;;;9.24;95.21
78890;BME280;68279;48.964;14.502;2023-10-19T08:55:26;95478.56;;;9.31;94.21
78890;BME280;68279;48.964;14.502;2023-10-19T08:57:52;95479.56;;;9.61;93.31
78890;BME280;68279;48.964;14.502;2023-10-19T09:00:18;95479.25;;;9.62;92.05
78890;BME280;68279;48.964;14.502;2023-10-19T09:02:45;95476.13;;;9.69;91.44
78890;BME280;68279;48.964;14.502;2023-10-19T09:05:11;95469.69;;;9.61;91.67
78890;BME280;68279;48.964;14.502;2023-10-19T09:07:53;95462.75;;;9.52;91.33
78890;BME280;68279;48.964;14.502;2023-10-19T09:10:28;95448.78;;;9.38;94.42
78890;BME280;68279;48.964;14.502;2023-10-19T09:13:05;95451.59;;;9.41;94.79
78890;BME280;68279;48.964;14.502;2023-10-19T09:15:38;95454.44;;;9.62;97.47
78890;BME280;68279;48.964;14.502;2023-10-19T09:18:22;95468.28;;;9.55;92.39
78890;BME280;68279;48.964;14.502;2023-10-19T09:20:49;95465.13;;;9.71;92.65
78890;BME280;68279;48.964;14.502;2023-10-19T09:23:25;95467.66;;;9.76;91.75
78890;BME280;68279;48.964;14.502;2023-10-19T09:26:01;95472.69;;;9.86;94.22
78890;BME280;68279;48.964;14.502;2023-10-19T09:28:31;95465.81;;;10.02;94.10
78890;BME280;68279;48.964;14.502;2023-10-19T09:30:59;95462.66;;;9.91;92.68
78890;BME280;68279;48.964;14.502;2023-10-19T09:33:26;95468.63;;;9.97;94.84
78890;BME280;68279;48.964;14.502;2023-10-19T09:35:53;95462.50;;;10.23;95.01
78890;BME280;68279;48.964;14.502;2023-10-19T09:38:20;95460.28;;;10.50;90.69
78890;BME280;68279;48.964;14.502;2023-10-19T09:40:51;95453.25;;;10.84;91.07
78890;BME280;68279;48.964;14.502;2023-10-19T09:43:45;95460.13;;;11.02;87.41
78890;BME280;68279;48.964;14.502;2023-10-19T09:46:12;95457.47;;;10.94;87.73
78890;BME280;68279;48.964;14.502;2023-10-19T09:48:42;95461.03;;;11.15;92.34
78890;BME280;68279;48.964;14.502;2023-10-19T09:51:11;95456.88;;;11.26;90.68
78890;BME280;68279;48.964;14.502;2023-10-19T09:53:39;95455.84;;;11.10;88.58
78890;BME280;68279;48.964;14.502;2023-10-19T09:56:06;95463.00;;;11.27;88.80
78890;BME280;68279;48.964;14.502;2023-10-19T09:58:40;95458.75;;;11.26;88.02
78890;BME280;68279;48.964;14.502;2023-10-19T10:01:08;95453.41;;;11.26;88.56
78890;BME280;68279;48.964;14.502;2023-10-19T10:06:10;95454.47;;;10.95;89.40
78890;BME280;68279;48.964;14.502;2023-10-19T10:08:38;95465.31;;;10.61;86.94
78890;BME280;68279;48.964;14.502;2023-10-19T10:11:20;95468.41;;;10.71;91.32
78890;BME280;68279;48.964;14.502;2023-10-19T10:13:46;95457.22;;;10.87;90.70
78890;BME280;68279;48.964;14.502;2023-10-19T10:16:22;95458.38;;;11.06;89.89
78890;BME280;68279;48.964;14.502;2023-10-19T10:18:54;95451.31;;;11.40;86.43
78890;BME280;68279;48.964;14.502;2023-10-19T10:21:21;95446.75;;;11.61;89.18
78890;BME280;68279;48.964;14.502;2023-10-19T10:26:25;95446.31;;;12.01;84.89
78890;BME280;68279;48.964;14.502;2023-10-19T10:29:18;95446.03;;;12.03;84.33
78890;BME280;68279;48.964;14.502;2023-10-19T10:31:48;95433.47;;;12.28;84.79
78890;BME280;68279;48.964;14.502;2023-10-19T10:37:00;95430.81;;;12.28;81.34
78890;BME280;68279;48.964;14.502;2023-10-19T10:39:30;95419.59;;;12.46;82.15
78890;BME280;68279;48.964;14.502;2023-10-19T10:42:02;95414.25;;;12.59;79.71
78890;BME280;68279;48.964;14.502;2023-10-19T10:44:43;95416.06;;;12.67;81.09
78890;BME280;68279;48.964;14.502;2023-10-19T10:47:11;95420.22;;;12.76;81.58
78890;BME280;68279;48.964;14.502;2023-10-19T10:49:51;95416.31;;;12.86;81.23
78890;BME280;68279;48.964;14.502;2023-10-19T10:52:36;95411.19;;;12.93;79.25
78890;BME280;68279;48.964;14.502;2023-10-19T10:55:10;95421.03;;;13.01;75.10
78890;BME280;68279;48.964;14.502;2023-10-19T10:57:42;95400.34;;;13.02;76.97
78890;BME280;68279;48.964;14.502;2023-10-19T11:00:09;95397.69;;;13.26;78.72
78890;BME280;68279;48.964;14.502;2023-10-19T11:02:40;95391.84;;;13.49;79.18
78890;BME280;68279;48.964;14.502;2023-10-19T11:05:12;95388.16;;;13.53;78.42
78890;BME280;68279;48.964;14.502;2023-10-19T11:07:40;95379.19;;;13.49;77.42
78890;BME280;68279;48.964;14.502;2023-10-19T11:10:05;95378.91;;;13.79;77.37
78890;BME280;68279;48.964;14.502;2023-10-19T11:12:33;95379.88;;;13.86;75.89
78890;BME280;68279;48.964;14.502;2023-10-19T11:14:59;95380.81;;;14.06;77.30
78890;BME280;68279;48.964;14.502;2023-10-19T11:17:26;95382.03;;;14.37;75.50
78890;BME280;68279;48.964;14.502;2023-10-19T11:19:58;95378.41;;;14.45;73.81
78890;BME280;68279;48.964;14.502;2023-10-19T11:22:26;95379.84;;;14.27;74.03
78890;BME280;68279;48.964;14.502;2023-10-19T11:24:53;95369.00;;;14.23;74.44
78890;BME280;68279;48.964;14.502;2023-10-19T11:27:26;95376.97;;;14.63;74.91
78890;BME280;68279;48.964;14.502;2023-10-19T11:29:57;95374.72;;;14.50;72.85
78890;BME280;68279;48.964;14.502;2023-10-19T11:32:35;95366.91;;;14.76;73.55
78890;BME280;68279;48.964;14.502;2023-10-19T11:35:01;95361.84;;;15.22;72.21
78890;BME280;68279;48.964;14.502;2023-10-19T11:37:26;95351.38;;;15.71;70.38
78890;BME280;68279;48.964;14.502;2023-10-19T11:39:52;95347.69;;;15.79;68.50
78890;BME280;68279;48.964;14.502;2023-10-19T11:42:18;95340.59;;;15.71;72.30
78890;BME280;68279;48.964;14.502;2023-10-19T11:44:44;95340.53;;;15.87;69.96
78890;BME280;68279;48.964;14.502;2023-10-19T11:47:10;95338.06;;;15.78;71.21
78890;BME280;68279;48.964;14.502;2023-10-19T11:49:36;95335.16;;;15.17;70.47
78890;BME280;68279;48.964;14.502;2023-10-19T11:52:06;95329.75;;;15.33;70.83
78890;BME280;68279;48.964;14.502;2023-10-19T11:54:33;95332.25;;;15.76;69.21
78890;BME280;68279;48.964;14.502;2023-10-19T11:56:59;95333.78;;;15.77;70.55
78890;BME280;68279;48.964;14.502;2023-10-19T11:59:24;95325.91;;;16.07;70.10
78890;BME280;68279;48.964;14.502;2023-10-19T12:01:52;95334.47;;;16.55;69.87
78890;BME280;68279;48.964;14.502;2023-10-19T12:04:17;95320.81;;;16.90;68.08
78890;BME280;68279;48.964;14.502;2023-10-19T12:06:43;95315.44;;;17.17;65.92
78890;BME280;68279;48.964;14.502;2023-10-19T12:09:11;95309.66;;;17.75;64.79
78890;BME280;68279;48.964;14.502;2023-10-19T12:11:41;95306.34;;;17.59;63.89
78890;BME280;68279;48.964;14.502;2023-10-19T12:14:06;95306.97;;;17.48;63.82
78890;BME280;68279;48.964;14.502;2023-10-19T12:16:37;95294.97;;;17.16;64.49
78890;BME280;68279;48.964;14.502;2023-10-19T12:19:05;95301.31;;;16.55;66.25
78890;BME280;68279;48.964;14.502;2023-10-19T12:21:31;95301.28;;;16.32;68.34
78890;BME280;68279;48.964;14.502;2023-10-19T12:23:56;95293.56;;;16.30;68.95
78890;BME280;68279;48.964;14.502;2023-10-19T12:26:24;95283.88;;;16.06;68.33
78890;BME280;68279;48.964;14.502;2023-10-19T12:28:50;95279.47;;;15.75;69.39
78890;BME280;68279;48.964;14.502;2023-10-19T12:31:16;95282.41;;;15.90;69.20
78890;BME280;68279;48.964;14.502;2023-10-19T12:33:44;95277.66;;;16.02;68.53
78890;BME280;68279;48.964;14.502;2023-10-19T12:36:10;95275.06;;;16.29;67.94
78890;BME280;68279;48.964;14.502;2023-10-19T12:38:51;95269.88;;;16.43;67.43
78890;BME280;68279;48.964;14.502;2023-10-19T12:41:21;95272.09;;;16.60;66.03
78890;BME280;68279;48.964;14.502;2023-10-19T12:43:47;95272.09;;;16.14;67.47
78890;BME280;68279;48.964;14.502;2023-10-19T12:46:13;95279.16;;;16.00;70.46
78890;BME280;68279;48.964;14.502;2023-10-19T12:48:42;95268.28;;;15.73;70.70
78890;BME280;68279;48.964;14.502;2023-10-19T12:51:07;95263.94;;;15.69;72.32
78890;BME280;68279;48.964;14.502;2023-10-19T12:53:34;95275.13;;;15.71;72.11
78890;BME280;68279;48.964;14.502;2023-10-19T12:56:01;95273.34;;;15.59;72.21
78890;BME280;68279;48.964;14.502;2023-10-19T12:58:28;95275.84;;;15.68;73.38
78890;BME280;68279;48.964;14.502;2023-10-19T13:00:55;95272.19;;;15.60;73.45
78890;BME280;68279;48.964;14.502;2023-10-19T13:03:21;95272.16;;;15.02;74.81
78890;BME280;68279;48.964;14.502;2023-10-19T13:05:48;95281.25;;;15.13;72.46
78890;BME280;68279;48.964;14.502;2023-10-19T13:08:15;95278.84;;;15.27;72.68
78890;BME280;68279;48.964;14.502;2023-10-19T13:10:43;95286.22;;;15.30;73.76
78890;BME280;68279;48.964;14.502;2023-10-19T13:13:10;95285.34;;;15.26;73.52